Time;durP1;ratioP1;P1;durP2;ratioP2;P2;SDS_P1;SDS_P2;PMS_P1;PMS_P2;Temp;Humidity;BMP_temperature;BMP_pressure;BME280_temperature;BME280_humidity;BME280_pressure;Samples;Min_cycle;Max_cycle;Signal;HPM_P1;HPM_P2
2022/05/20 00:06:12;;;;;;;5.10;1.85;;;;;;;9.96;67.32;101396.97;18244425;32;20164;-64
2022/05/20 00:16:15;;;;;;;5.00;2.42;;;;;;;10.25;66.65;101383.50;18243500;32;20386;-65
2022/05/20 00:26:20;;;;;;;4.55;2.05;;;;;;;9.64;69.01;101393.81;18242631;32;20449;-65
2022/05/20 00:36:23;;;;;;;5.75;2.17;;;;;;;9.94;68.40;101382.13;18242755;32;20101;-65
2022/05/20 00:46:29;;;;;;;4.93;2.05;;;;;;;9.73;68.60;101372.25;18241985;32;20090;-65
2022/05/20 00:56:34;;;;;;;4.47;2.37;;;;;;;9.57;68.70;101372.84;18244377;32;20098;-65
2022/05/20 01:06:39;;;;;;;3.30;2.08;;;;;;;8.90;71.61;101378.53;18304942;32;20105;-65
2022/05/20 01:16:42;;;;;;;10.30;2.28;;;;;;;9.06;71.00;101371.03;18304749;32;20112;-64
2022/05/20 01:26:46;;;;;;;5.45;2.20;;;;;;;9.60;68.80;101368.56;18304258;32;20082;-64
2022/05/20 01:36:50;;;;;;;5.70;2.10;;;;;;;8.98;71.19;101366.53;18303652;32;20121;-64
2022/05/20 01:46:57;;;;;;;4.72;1.73;;;;;;;9.30;69.49;101361.09;18289100;32;20089;-64
2022/05/20 01:57:07;;;;;;;4.68;2.00;;;;;;;9.06;70.60;101345.87;18302853;32;20125;-64
2022/05/20 02:07:18;;;;;;;3.50;2.05;;;;;;;9.05;69.91;101331.06;18302254;32;20386;-64
2022/05/20 02:17:24;;;;;;;3.97;1.67;;;;;;;9.43;67.59;101324.81;18302922;32;20344;-64
2022/05/20 02:27:32;;;;;;;4.05;1.90;;;;;;;8.78;70.57;101341.84;18307566;32;20097;-64
2022/05/20 02:37:38;;;;;;;2.60;1.42;;;;;;;8.49;71.43;101339.47;18309334;32;20138;-64
2022/05/20 02:47:42;;;;;;;3.92;2.12;;;;;;;8.83;70.08;101319.38;18309036;32;20115;-64
2022/05/20 02:57:45;;;;;;;5.10;2.37;;;;;;;8.28;71.17;101315.59;18309798;32;20144;-64
2022/05/20 03:07:50;;;;;;;4.57;1.80;;;;;;;8.37;71.72;101309.75;18308615;32;20340;-64
2022/05/20 03:17:53;;;;;;;2.75;1.70;;;;;;;7.89;73.42;101313.84;18308245;32;20115;-64
2022/05/20 03:27:58;;;;;;;2.80;1.55;;;;;;;8.40;72.21;101320.19;18307660;32;20104;-64
2022/05/20 03:38:01;;;;;;;3.72;1.98;;;;;;;8.49;72.35;101318.66;18307098;32;20173;-64
2022/05/20 03:48:06;;;;;;;4.28;1.90;;;;;;;8.78;71.21;101313.19;18307123;32;20098;-64
2022/05/20 03:58:10;;;;;;;5.00;1.85;;;;;;;8.87;71.94;101311.66;18306635;32;20116;-64
2022/05/20 04:08:14;;;;;;;4.03;2.12;;;;;;;9.47;70.62;101300.53;18306492;32;20123;-64
2022/05/20 04:18:17;;;;;;;4.15;2.03;;;;;;;9.27;72.73;101321.06;18305539;32;20094;-64
2022/05/20 04:28:22;;;;;;;4.22;2.42;;;;;;;10.49;70.87;101305.53;18305492;32;20382;-65
2022/05/20 04:38:25;;;;;;;4.78;2.30;;;;;;;10.60;74.12;101311.78;18304560;32;20085;-65
2022/05/20 04:48:30;;;;;;;5.07;2.15;;;;;;;11.61;71.02;101319.78;18303594;32;20119;-65
2022/05/20 04:58:33;;;;;;;5.60;1.98;;;;;;;12.94;67.37;101305.69;18304486;32;20098;-66
2022/05/20 05:08:37;;;;;;;6.03;2.12;;;;;;;13.43;65.18;101294.41;18305779;32;20136;-65
2022/05/20 05:18:40;;;;;;;5.25;2.05;;;;;;;13.49;66.21;101311.91;18305544;32;20101;-65
2022/05/20 05:28:45;;;;;;;6.97;2.00;;;;;;;14.24;60.92;101313.56;18304923;32;20112;-65
2022/05/20 05:38:48;;;;;;;4.45;2.20;;;;;;;15.63;57.14;101286.50;18303580;32;20102;-65
2022/05/20 05:48:53;;;;;;;9.05;2.50;;;;;;;15.92;51.11;101295.91;18303108;32;20108;-65
2022/05/20 05:58:57;;;;;;;4.22;1.83;;;;;;;16.26;51.83;101284.13;18302154;32;20097;-65
2022/05/20 06:09:02;;;;;;;4.75;2.00;;;;;;;17.09;51.91;101278.66;18300142;32;20171;-66
2022/05/20 06:19:06;;;;;;;5.80;2.08;;;;;;;17.38;49.20;101290.50;18301735;32;20371;-66
2022/05/20 06:29:11;;;;;;;6.82;2.17;;;;;;;18.21;49.67;101266.12;18300573;32;20723;-65
2022/05/20 06:49:36;;;;;;;7.03;2.03;;;;;;;20.62;38.61;101246.87;18298319;32;20119;-66
2022/05/20 06:59:40;;;;;;;4.32;1.87;;;;;;;20.06;41.84;101261.75;18298705;32;20093;-66
2022/05/20 07:09:44;;;;;;;4.00;1.55;;;;;;;20.12;44.41;101266.06;18295376;32;20085;-66
2022/05/20 07:19:50;;;;;;;2.95;1.33;;;;;;;20.14;46.85;101274.81;18242566;32;20106;-66
2022/05/20 07:29:54;;;;;;;5.40;2.00;;;;;;;21.83;40.95;101277.47;18299560;32;20135;-66
2022/05/20 07:39:57;;;;;;;6.47;2.00;;;;;;;25.37;30.99;101274.06;18265160;32;20128;-66
2022/05/20 07:50:04;;;;;;;3.00;1.87;;;;;;;26.32;28.01;101274.53;18261765;32;20112;-65
2022/05/20 08:00:12;;;;;;;5.47;1.98;;;;;;;25.14;31.10;101253.87;18280529;32;20137;-66
2022/05/20 08:10:18;;;;;;;8.10;1.85;;;;;;;24.52;30.39;101260.37;18304966;32;20086;-66
2022/05/20 08:20:28;;;;;;;6.68;1.85;;;;;;;24.43;34.66;101242.12;18287287;32;20395;-67
2022/05/20 08:30:33;;;;;;;4.13;1.53;;;;;;;24.17;33.14;101237.06;18264673;32;20113;-66
2022/05/20 08:40:42;;;;;;;3.33;1.50;;;;;;;25.54;29.08;101216.25;18261606;32;20120;-65
2022/05/20 08:50:48;;;;;;;5.12;1.75;;;;;;;26.25;27.66;101201.75;18299943;32;20086;-66
2022/05/20 09:00:51;;;;;;;3.22;1.65;;;;;;;26.11;28.53;101181.09;18302438;32;20116;-66
2022/05/20 09:10:58;;;;;;;6.45;2.00;;;;;;;25.68;29.48;101172.72;18291776;32;20114;-66
2022/05/20 09:21:01;;;;;;;4.07;1.70;;;;;;;26.52;28.24;101157.44;18256897;32;20098;-66
2022/05/20 09:31:15;;;;;;;4.75;1.73;;;;;;;27.13;28.87;101141.41;18301615;32;20359;-66
2022/05/20 09:41:21;;;;;;;3.10;1.52;;;;;;;26.96;28.41;101139.72;18276094;32;20141;-66
2022/05/20 09:51:33;;;;;;;4.78;1.85;;;;;;;27.34;26.80;101139.22;18300453;32;20115;-66
2022/05/20 10:01:37;;;;;;;3.22;1.92;;;;;;;27.92;28.06;101146.41;18299840;32;20102;-67
2022/05/20 10:11:52;;;;;;;4.62;1.75;;;;;;;28.18;26.64;101139.34;18245321;32;20134;-66
2022/05/20 10:22:00;;;;;;;4.47;1.65;;;;;;;28.51;26.89;101127.41;18262438;32;20906;-66
2022/05/20 10:42:43;;;;;;;3.25;1.60;;;;;;;28.72;25.84;101110.78;18259990;32;20149;-66
2022/05/20 10:53:11;;;;;;;3.28;1.50;;;;;;;28.47;25.68;101096.31;18305318;32;20100;-66
2022/05/20 11:03:40;;;;;;;3.28;1.60;;;;;;;29.03;27.95;101091.72;18286638;32;20106;-66
2022/05/20 11:13:58;;;;;;;4.43;1.50;;;;;;;29.37;25.73;101075.06;18280699;32;20117;-66
2022/05/20 11:24:19;;;;;;;4.43;2.00;;;;;;;29.85;25.25;101050.97;18241401;32;20344;-66
2022/05/20 11:35:01;;;;;;;4.55;1.80;;;;;;;30.82;25.20;101036.53;18242100;32;20108;-66
2022/05/20 11:45:15;;;;;;;3.33;1.67;;;;;;;30.54;24.88;101025.19;18266577;32;20102;-66
2022/05/20 11:55:21;;;;;;;2.58;1.40;;;;;;;30.34;24.83;101025.84;18239920;32;20112;-66
2022/05/20 12:05:30;;;;;;;3.35;1.52;;;;;;;30.42;24.83;101012.66;18239599;32;20109;-66
2022/05/20 12:15:41;;;;;;;2.30;1.40;;;;;;;31.73;24.19;100991.62;18241050;32;20093;-66
2022/05/20 12:25:46;;;;;;;3.45;1.30;;;;;;;30.95;25.57;100992.44;18242271;32;20094;-66
2022/05/20 12:36:19;;;;;;;3.78;1.60;;;;;;;32.19;23.79;100978.81;18278334;32;20093;-67
2022/05/20 12:46:51;;;;;;;2.85;1.30;;;;;;;31.47;24.97;100960.44;18239254;32;20200;-66
2022/05/20 12:56:56;;;;;;;3.12;1.20;;;;;;;31.79;24.33;100956.03;18241914;32;124634;-67
2022/05/20 13:07:01;;;;;;;2.75;1.30;;;;;;;32.30;24.32;100934.69;18273927;32;20124;-66
2022/05/20 13:17:05;;;;;;;4.82;1.80;;;;;;;32.30;24.05;100923.88;18239606;32;20355;-67
2022/05/20 13:27:13;;;;;;;3.33;1.48;;;;;;;32.20;24.45;100915.69;18184840;32;20125;-64
2022/05/20 13:37:20;;;;;;;3.92;1.50;;;;;;;31.46;25.36;100903.91;18271102;32;20112;-66
2022/05/20 13:57:48;;;;;;;5.25;1.52;;;;;;;31.55;24.55;100895.03;18301937;32;20445;-66
2022/05/20 14:07:54;;;;;;;2.53;1.33;;;;;;;31.97;24.41;100873.53;18300992;32;20112;-67
2022/05/20 14:17:59;;;;;;;3.42;1.30;;;;;;;32.28;23.99;100848.38;18287948;32;20155;-66
2022/05/20 14:28:17;;;;;;;3.00;1.40;;;;;;;32.73;24.47;100851.72;18305100;32;20137;-66
2022/05/20 14:38:23;;;;;;;3.87;1.50;;;;;;;32.51;25.59;100827.47;18308737;32;20097;-67
2022/05/20 14:48:40;;;;;;;2.92;1.35;;;;;;;31.86;25.40;100826.84;18307138;32;20081;-66
2022/05/20 14:59:04;;;;;;;4.60;1.37;;;;;;;32.19;26.09;100822.19;18306534;32;20651;-66
2022/05/20 15:09:19;;;;;;;4.95;1.60;;;;;;;32.64;24.23;100802.91;18292435;32;20093;-66
2022/05/20 15:19:22;;;;;;;2.90;1.45;;;;;;;32.16;26.00;100812.53;18306422;32;20090;-65
2022/05/20 15:29:28;;;;;;;3.15;1.55;;;;;;;31.96;24.89;100796.19;18306982;32;20111;-65
2022/05/20 15:39:33;;;;;;;3.05;1.60;;;;;;;31.33;25.64;100793.50;18306827;32;20105;-66
2022/05/20 15:49:38;;;;;;;2.53;1.40;;;;;;;31.39;26.59;100785.72;18306955;32;20112;-66
2022/05/20 15:59:42;;;;;;;2.55;1.30;;;;;;;30.97;26.80;100782.94;18292150;32;20094;-66
2022/05/20 16:09:48;;;;;;;1.77;1.00;;;;;;;31.10;26.57;100767.44;18303756;32;20188;-66
2022/05/20 16:19:51;;;;;;;3.40;1.05;;;;;;;31.01;26.88;100743.97;18306557;32;20119;-66
2022/05/20 16:29:56;;;;;;;3.22;1.20;;;;;;;31.11;27.37;100731.44;18304366;32;20098;-66
2022/05/20 16:39:59;;;;;;;2.40;0.90;;;;;;;30.96;28.01;100705.78;18305926;32;20098;-66
2022/05/20 16:50:05;;;;;;;3.50;1.30;;;;;;;31.08;27.43;100699.34;18304161;32;20102;-66
2022/05/20 17:10:31;;;;;;;2.35;1.30;;;;;;;30.32;28.54;100692.94;18368186;32;20667;-66
2022/05/20 17:20:35;;;;;;;5.25;1.60;;;;;;;30.10;29.87;100693.84;18368125;32;20477;-66
2022/05/20 17:30:45;;;;;;;1.80;1.10;;;;;;;29.43;31.91;100687.38;18367976;32;20108;-66
2022/05/20 17:40:48;;;;;;;5.82;1.73;;;;;;;28.99;33.05;100681.78;18366912;32;20093;-66
2022/05/20 17:50:52;;;;;;;2.53;1.35;;;;;;;28.38;36.01;100679.03;18366650;32;20101;-66
2022/05/20 18:00:55;;;;;;;5.55;1.60;;;;;;;27.65;39.71;100686.00;18366444;32;20386;-66
2022/05/20 18:11:00;;;;;;;6.47;1.90;;;;;;;27.05;41.76;100672.19;18366224;32;20354;-66
2022/05/20 18:21:04;;;;;;;8.30;2.10;;;;;;;26.28;43.16;100676.28;18365600;32;20093;-66
2022/05/20 18:31:28;;;;;;;3.03;1.37;;;;;;;25.58;45.45;100680.56;18349123;32;20148;-67
2022/05/20 18:41:33;;;;;;;2.92;1.75;;;;;;;24.82;47.17;100679.66;18314116;32;20102;-66
2022/05/20 18:51:37;;;;;;;6.80;1.80;;;;;;;24.20;49.52;100667.94;18280344;32;20101;-66
2022/05/20 19:01:40;;;;;;;3.12;1.75;;;;;;;23.35;52.86;100670.63;18298757;32;20101;-66
2022/05/20 19:11:45;;;;;;;2.85;1.58;;;;;;;23.24;53.11;100657.87;18307246;32;20112;-66
2022/05/20 19:21:48;;;;;;;4.50;1.70;;;;;;;22.98;53.33;100652.06;18294310;32;20101;-66
2022/05/20 19:31:53;;;;;;;7.70;2.28;;;;;;;22.40;54.68;100630.03;18307451;32;20374;-66
2022/05/20 19:41:57;;;;;;;5.15;2.10;;;;;;;22.25;54.88;100627.16;18306180;32;20120;-66
2022/05/20 19:52:02;;;;;;;5.68;2.10;;;;;;;21.61;56.11;100626.50;18306368;32;20396;-66
2022/05/20 20:02:05;;;;;;;4.87;1.83;;;;;;;21.42;57.09;100613.22;18305710;32;20082;-66
2022/05/20 20:12:11;;;;;;;3.37;1.85;;;;;;;21.23;55.78;100608.72;18305939;32;20140;-66
2022/05/20 20:32:36;;;;;;;2.60;1.60;;;;;;;20.86;56.15;100618.25;18291406;32;20425;-66
2022/05/20 20:42:40;;;;;;;3.08;1.60;;;;;;;20.55;57.20;100585.84;18299115;32;20093;-66
2022/05/20 20:52:46;;;;;;;3.45;1.90;;;;;;;20.17;58.68;100577.66;18299676;32;20104;-66
2022/05/20 21:02:52;;;;;;;3.35;1.83;;;;;;;20.17;58.28;100580.31;18297716;32;20624;-66
2022/05/20 21:12:59;;;;;;;5.18;1.70;;;;;;;20.43;56.20;100575.75;18302446;32;20371;-66
2022/05/20 21:23:02;;;;;;;3.55;1.77;;;;;;;19.94;58.56;100574.16;18302636;32;20097;-66
2022/05/20 21:33:07;;;;;;;5.40;2.00;;;;;;;19.20;61.35;100586.50;18300706;32;20112;-66
2022/05/20 21:43:10;;;;;;;4.85;2.22;;;;;;;19.57;59.73;100576.34;18287782;32;20102;-66
2022/05/20 21:53:16;;;;;;;2.78;1.73;;;;;;;19.30;60.67;100575.59;18301914;32;20452;-66
2022/05/20 22:13:43;;;;;;;5.32;2.10;;;;;;;17.82;65.92;100562.66;18301074;32;20097;-66
2022/05/20 22:23:47;;;;;;;4.55;1.95;;;;;;;18.78;62.47;100550.00;18299183;32;20455;-66
2022/05/20 22:33:52;;;;;;;3.00;1.90;;;;;;;18.41;63.46;100534.47;18298841;32;20098;-66
2022/05/20 22:43:55;;;;;;;2.70;1.83;;;;;;;17.78;65.67;100524.06;18305197;32;20097;-66
2022/05/20 22:54:00;;;;;;;4.32;2.22;;;;;;;17.23;66.92;100501.03;18307352;32;20105;-66
2022/05/20 23:04:04;;;;;;;5.37;2.60;;;;;;;17.13;67.41;100487.25;18306981;32;20457;-66
2022/05/20 23:14:09;;;;;;;4.80;2.15;;;;;;;17.53;65.42;100485.22;18307858;32;20379;-66
2022/05/20 23:24:13;;;;;;;4.80;2.30;;;;;;;17.23;66.78;100461.47;18307659;32;20097;-66
2022/05/20 23:34:17;;;;;;;4.82;2.10;;;;;;;17.31;66.43;100434.84;18306149;32;20394;-66
2022/05/20 23:44:20;;;;;;;4.62;2.37;;;;;;;17.32;66.13;100420.78;18305773;32;20128;-66
